METAR Data
IDs: Format: Raw Decoded Include TAF

Data at: 1658 UTC 18 Feb 2019

METAR for:KOXV (Knoxville Muni, IA, US)
Text:KOXV 181655Z AUTO 34009KT 10SM CLR M08/M08 A3042 RMK AO2
Temperature: -8.0°C ( 18°F)
Dewpoint: -8.0°C ( 18°F) [RH = 100%]
Pressure (altimeter):30.42 inches Hg (1030.2 mb)
Winds:from the NNW (340 degrees) at 10 MPH (9 knots; 4.6 m/s)
Visibility:10 or more sm (16+ km)
Ceiling:at least 12,000 feet AGL
Clouds:sky clear below 12,000 feet AGL
QC Flag:automated observation with no human augmentation